sensor_id;sensor_type;location;lat;lon;timestamp;P1;durP1;ratioP1;P2;durP2;ratioP2
9809;SDS011;4944;52.514;13.192;2024-01-10T00:01:59;22.93;;;13.53;;
9809;SDS011;4944;52.514;13.192;2024-01-10T00:04:26;22.40;;;13.77;;
9809;SDS011;4944;52.514;13.192;2024-01-10T00:06:53;22.00;;;13.30;;
9809;SDS011;4944;52.514;13.192;2024-01-10T00:09:20;24.77;;;14.10;;
9809;SDS011;4944;52.514;13.192;2024-01-10T00:11:47;21.87;;;13.77;;
9809;SDS011;4944;52.514;13.192;2024-01-10T00:14:15;22.37;;;13.30;;
9809;SDS011;4944;52.514;13.192;2024-01-10T00:16:42;25.80;;;14.00;;
9809;SDS011;4944;52.514;13.192;2024-01-10T00:19:09;24.83;;;14.70;;
9809;SDS011;4944;52.514;13.192;2024-01-10T00:21:36;23.73;;;13.80;;
9809;SDS011;4944;52.514;13.192;2024-01-10T00:24:03;29.33;;;14.93;;
9809;SDS011;4944;52.514;13.192;2024-01-10T00:26:30;23.27;;;14.97;;
9809;SDS011;4944;52.514;13.192;2024-01-10T00:28:57;24.97;;;13.97;;
9809;SDS011;4944;52.514;13.192;2024-01-10T00:31:26;22.93;;;14.00;;
9809;SDS011;4944;52.514;13.192;2024-01-10T00:33:54;23.37;;;13.80;;
9809;SDS011;4944;52.514;13.192;2024-01-10T00:36:20;22.53;;;13.83;;
9809;SDS011;4944;52.514;13.192;2024-01-10T00:38:47;24.20;;;14.07;;
9809;SDS011;4944;52.514;13.192;2024-01-10T00:41:14;24.90;;;14.90;;
9809;SDS011;4944;52.514;13.192;2024-01-10T00:43:41;23.87;;;14.53;;
9809;SDS011;4944;52.514;13.192;2024-01-10T00:46:08;26.03;;;14.87;;
9809;SDS011;4944;52.514;13.192;2024-01-10T00:48:36;23.20;;;13.90;;
9809;SDS011;4944;52.514;13.192;2024-01-10T00:51:03;27.53;;;15.10;;
9809;SDS011;4944;52.514;13.192;2024-01-10T00:53:33;23.17;;;14.13;;
9809;SDS011;4944;52.514;13.192;2024-01-10T00:56:00;19.83;;;13.13;;
9809;SDS011;4944;52.514;13.192;2024-01-10T00:58:27;23.47;;;14.63;;
9809;SDS011;4944;52.514;13.192;2024-01-10T01:00:54;24.10;;;13.27;;
9809;SDS011;4944;52.514;13.192;2024-01-10T01:03:21;23.70;;;15.23;;
9809;SDS011;4944;52.514;13.192;2024-01-10T01:05:49;23.30;;;13.80;;
9809;SDS011;4944;52.514;13.192;2024-01-10T01:08:16;23.90;;;14.30;;
9809;SDS011;4944;52.514;13.192;2024-01-10T01:10:42;24.13;;;14.37;;
9809;SDS011;4944;52.514;13.192;2024-01-10T01:13:09;25.53;;;14.87;;
9809;SDS011;4944;52.514;13.192;2024-01-10T01:15:36;27.50;;;14.70;;
9809;SDS011;4944;52.514;13.192;2024-01-10T01:18:03;25.77;;;15.23;;
9809;SDS011;4944;52.514;13.192;2024-01-10T01:20:30;26.40;;;15.17;;
9809;SDS011;4944;52.514;13.192;2024-01-10T01:23:00;26.90;;;14.80;;
9809;SDS011;4944;52.514;13.192;2024-01-10T01:25:27;23.20;;;14.23;;
9809;SDS011;4944;52.514;13.192;2024-01-10T01:27:54;25.43;;;14.63;;
9809;SDS011;4944;52.514;13.192;2024-01-10T01:30:21;28.23;;;15.27;;
9809;SDS011;4944;52.514;13.192;2024-01-10T01:32:48;23.50;;;14.23;;
9809;SDS011;4944;52.514;13.192;2024-01-10T01:35:14;24.67;;;14.43;;
9809;SDS011;4944;52.514;13.192;2024-01-10T01:37:46;28.00;;;16.13;;
9809;SDS011;4944;52.514;13.192;2024-01-10T01:40:15;26.33;;;15.00;;
9809;SDS011;4944;52.514;13.192;2024-01-10T01:42:43;26.67;;;14.77;;
9809;SDS011;4944;52.514;13.192;2024-01-10T01:45:12;27.73;;;16.27;;
9809;SDS011;4944;52.514;13.192;2024-01-10T01:47:39;26.17;;;15.43;;
9809;SDS011;4944;52.514;13.192;2024-01-10T01:50:07;28.97;;;15.87;;
9809;SDS011;4944;52.514;13.192;2024-01-10T01:52:35;26.10;;;16.10;;
9809;SDS011;4944;52.514;13.192;2024-01-10T01:55:03;24.27;;;14.80;;
9809;SDS011;4944;52.514;13.192;2024-01-10T01:57:33;27.67;;;15.20;;
9809;SDS011;4944;52.514;13.192;2024-01-10T02:00:01;24.77;;;14.47;;
9809;SDS011;4944;52.514;13.192;2024-01-10T02:02:29;29.53;;;15.30;;
9809;SDS011;4944;52.514;13.192;2024-01-10T02:04:57;28.50;;;15.27;;
9809;SDS011;4944;52.514;13.192;2024-01-10T02:07:24;25.43;;;14.80;;
9809;SDS011;4944;52.514;13.192;2024-01-10T02:09:51;28.70;;;15.40;;
9809;SDS011;4944;52.514;13.192;2024-01-10T02:12:18;24.70;;;15.57;;
9809;SDS011;4944;52.514;13.192;2024-01-10T02:14:47;28.43;;;15.23;;
9809;SDS011;4944;52.514;13.192;2024-01-10T02:17:14;26.07;;;14.37;;
9809;SDS011;4944;52.514;13.192;2024-01-10T02:19:41;28.07;;;15.50;;
9809;SDS011;4944;52.514;13.192;2024-01-10T02:22:08;25.07;;;14.93;;
9809;SDS011;4944;52.514;13.192;2024-01-10T02:24:36;29.90;;;15.40;;
9809;SDS011;4944;52.514;13.192;2024-01-10T02:27:04;25.50;;;15.20;;
9809;SDS011;4944;52.514;13.192;2024-01-10T02:29:31;26.57;;;15.50;;
9809;SDS011;4944;52.514;13.192;2024-01-10T02:32:00;29.80;;;15.63;;
9809;SDS011;4944;52.514;13.192;2024-01-10T02:34:27;27.67;;;15.73;;
9809;SDS011;4944;52.514;13.192;2024-01-10T02:36:55;23.37;;;14.43;;
9809;SDS011;4944;52.514;13.192;2024-01-10T02:39:22;27.23;;;14.83;;
9809;SDS011;4944;52.514;13.192;2024-01-10T02:41:49;24.33;;;14.50;;
9809;SDS011;4944;52.514;13.192;2024-01-10T02:44:17;26.60;;;15.23;;
9809;SDS011;4944;52.514;13.192;2024-01-10T02:46:44;24.73;;;15.23;;
9809;SDS011;4944;52.514;13.192;2024-01-10T02:49:11;25.73;;;14.53;;
9809;SDS011;4944;52.514;13.192;2024-01-10T02:51:38;23.53;;;14.13;;
9809;SDS011;4944;52.514;13.192;2024-01-10T02:54:05;23.70;;;14.10;;
9809;SDS011;4944;52.514;13.192;2024-01-10T02:56:32;21.77;;;13.03;;
9809;SDS011;4944;52.514;13.192;2024-01-10T02:58:59;23.87;;;14.27;;
9809;SDS011;4944;52.514;13.192;2024-01-10T03:01:27;20.83;;;13.33;;
9809;SDS011;4944;52.514;13.192;2024-01-10T03:03:54;25.03;;;14.43;;
9809;SDS011;4944;52.514;13.192;2024-01-10T03:06:21;25.03;;;14.37;;
9809;SDS011;4944;52.514;13.192;2024-01-10T03:08:48;23.40;;;14.37;;
9809;SDS011;4944;52.514;13.192;2024-01-10T03:11:15;24.00;;;14.20;;
9809;SDS011;4944;52.514;13.192;2024-01-10T03:13:43;24.63;;;14.33;;
9809;SDS011;4944;52.514;13.192;2024-01-10T03:16:11;24.73;;;14.90;;
9809;SDS011;4944;52.514;13.192;2024-01-10T03:18:40;25.87;;;15.07;;
9809;SDS011;4944;52.514;13.192;2024-01-10T03:21:07;22.97;;;14.57;;
9809;SDS011;4944;52.514;13.192;2024-01-10T03:23:33;24.70;;;14.17;;
9809;SDS011;4944;52.514;13.192;2024-01-10T03:26:00;22.70;;;14.30;;
9809;SDS011;4944;52.514;13.192;2024-01-10T03:28:27;25.23;;;14.60;;
9809;SDS011;4944;52.514;13.192;2024-01-10T03:30:54;27.80;;;16.00;;
9809;SDS011;4944;52.514;13.192;2024-01-10T03:33:21;27.33;;;15.63;;
9809;SDS011;4944;52.514;13.192;2024-01-10T03:35:49;28.67;;;15.80;;
9809;SDS011;4944;52.514;13.192;2024-01-10T03:38:16;27.67;;;16.03;;
9809;SDS011;4944;52.514;13.192;2024-01-10T03:40:43;28.90;;;16.23;;
9809;SDS011;4944;52.514;13.192;2024-01-10T03:43:10;28.23;;;15.83;;
9809;SDS011;4944;52.514;13.192;2024-01-10T03:45:37;30.10;;;16.70;;
9809;SDS011;4944;52.514;13.192;2024-01-10T03:48:04;28.77;;;16.87;;
9809;SDS011;4944;52.514;13.192;2024-01-10T03:50:32;29.53;;;16.47;;
9809;SDS011;4944;52.514;13.192;2024-01-10T03:53:00;35.00;;;18.30;;
9809;SDS011;4944;52.514;13.192;2024-01-10T03:55:27;29.20;;;16.83;;
9809;SDS011;4944;52.514;13.192;2024-01-10T03:57:54;31.57;;;17.93;;
9809;SDS011;4944;52.514;13.192;2024-01-10T04:00:22;30.00;;;17.47;;
9809;SDS011;4944;52.514;13.192;2024-01-10T04:02:52;29.77;;;17.00;;
9809;SDS011;4944;52.514;13.192;2024-01-10T04:05:19;28.53;;;16.80;;
9809;SDS011;4944;52.514;13.192;2024-01-10T04:07:46;30.47;;;16.67;;
9809;SDS011;4944;52.514;13.192;2024-01-10T04:10:14;29.33;;;17.00;;
9809;SDS011;4944;52.514;13.192;2024-01-10T04:12:41;27.23;;;16.27;;
9809;SDS011;4944;52.514;13.192;2024-01-10T04:15:08;28.60;;;16.57;;
9809;SDS011;4944;52.514;13.192;2024-01-10T04:17:35;30.90;;;17.07;;
9809;SDS011;4944;52.514;13.192;2024-01-10T04:20:03;34.27;;;18.10;;
9809;SDS011;4944;52.514;13.192;2024-01-10T04:22:30;30.97;;;17.73;;
9809;SDS011;4944;52.514;13.192;2024-01-10T04:24:58;28.80;;;16.90;;
9809;SDS011;4944;52.514;13.192;2024-01-10T04:27:26;34.23;;;17.80;;
9809;SDS011;4944;52.514;13.192;2024-01-10T04:29:53;34.10;;;18.23;;
9809;SDS011;4944;52.514;13.192;2024-01-10T04:32:20;29.67;;;16.97;;
9809;SDS011;4944;52.514;13.192;2024-01-10T04:34:47;30.50;;;17.20;;
9809;SDS011;4944;52.514;13.192;2024-01-10T04:37:15;29.33;;;17.43;;
9809;SDS011;4944;52.514;13.192;2024-01-10T04:39:41;30.70;;;17.43;;
9809;SDS011;4944;52.514;13.192;2024-01-10T04:42:08;28.93;;;16.27;;
9809;SDS011;4944;52.514;13.192;2024-01-10T04:44:38;28.30;;;16.67;;
9809;SDS011;4944;52.514;13.192;2024-01-10T04:47:08;29.70;;;17.00;;
9809;SDS011;4944;52.514;13.192;2024-01-10T04:49:34;30.67;;;17.37;;
9809;SDS011;4944;52.514;13.192;2024-01-10T04:52:01;29.33;;;16.73;;
9809;SDS011;4944;52.514;13.192;2024-01-10T04:54:29;27.43;;;16.57;;
9809;SDS011;4944;52.514;13.192;2024-01-10T04:56:56;30.80;;;17.83;;
9809;SDS011;4944;52.514;13.192;2024-01-10T04:59:22;28.93;;;16.57;;
9809;SDS011;4944;52.514;13.192;2024-01-10T05:01:51;30.07;;;16.83;;
9809;SDS011;4944;52.514;13.192;2024-01-10T05:04:18;28.40;;;16.90;;
9809;SDS011;4944;52.514;13.192;2024-01-10T05:06:44;33.07;;;17.47;;
9809;SDS011;4944;52.514;13.192;2024-01-10T05:09:11;30.57;;;17.50;;
9809;SDS011;4944;52.514;13.192;2024-01-10T05:11:39;31.23;;;18.07;;
9809;SDS011;4944;52.514;13.192;2024-01-10T05:14:06;33.90;;;17.63;;
9809;SDS011;4944;52.514;13.192;2024-01-10T05:16:33;34.43;;;17.50;;
9809;SDS011;4944;52.514;13.192;2024-01-10T05:19:01;32.80;;;18.57;;
9809;SDS011;4944;52.514;13.192;2024-01-10T05:21:29;31.80;;;17.67;;
9809;SDS011;4944;52.514;13.192;2024-01-10T05:23:56;33.63;;;18.07;;
9809;SDS011;4944;52.514;13.192;2024-01-10T05:26:23;35.40;;;17.70;;
9809;SDS011;4944;52.514;13.192;2024-01-10T05:28:50;41.50;;;21.60;;
9809;SDS011;4944;52.514;13.192;2024-01-10T05:31:17;35.73;;;18.53;;
9809;SDS011;4944;52.514;13.192;2024-01-10T05:33:43;33.13;;;18.40;;
9809;SDS011;4944;52.514;13.192;2024-01-10T05:36:12;34.70;;;18.80;;
9809;SDS011;4944;52.514;13.192;2024-01-10T05:38:39;39.53;;;18.33;;
9809;SDS011;4944;52.514;13.192;2024-01-10T05:41:06;33.80;;;18.07;;
9809;SDS011;4944;52.514;13.192;2024-01-10T05:43:33;34.33;;;18.10;;
9809;SDS011;4944;52.514;13.192;2024-01-10T05:46:00;32.33;;;18.67;;
9809;SDS011;4944;52.514;13.192;2024-01-10T05:48:27;29.17;;;17.30;;
9809;SDS011;4944;52.514;13.192;2024-01-10T05:50:54;28.90;;;17.03;;
9809;SDS011;4944;52.514;13.192;2024-01-10T05:53:23;31.27;;;17.07;;
9809;SDS011;4944;52.514;13.192;2024-01-10T05:55:50;32.80;;;17.83;;
9809;SDS011;4944;52.514;13.192;2024-01-10T05:58:17;28.10;;;17.20;;
9809;SDS011;4944;52.514;13.192;2024-01-10T06:00:44;31.27;;;17.23;;
9809;SDS011;4944;52.514;13.192;2024-01-10T06:03:11;27.40;;;16.50;;
9809;SDS011;4944;52.514;13.192;2024-01-10T06:05:38;30.37;;;17.33;;
9809;SDS011;4944;52.514;13.192;2024-01-10T06:08:05;29.63;;;17.67;;
9809;SDS011;4944;52.514;13.192;2024-01-10T06:10:34;32.40;;;17.30;;
9809;SDS011;4944;52.514;13.192;2024-01-10T06:13:01;29.53;;;17.43;;
9809;SDS011;4944;52.514;13.192;2024-01-10T06:15:28;33.90;;;18.47;;
9809;SDS011;4944;52.514;13.192;2024-01-10T06:17:55;29.77;;;17.23;;
9809;SDS011;4944;52.514;13.192;2024-01-10T06:20:22;30.50;;;17.77;;
9809;SDS011;4944;52.514;13.192;2024-01-10T06:22:49;32.17;;;17.37;;
9809;SDS011;4944;52.514;13.192;2024-01-10T06:25:15;32.40;;;18.07;;
9809;SDS011;4944;52.514;13.192;2024-01-10T06:27:44;32.57;;;18.33;;
9809;SDS011;4944;52.514;13.192;2024-01-10T06:30:11;30.20;;;17.17;;
9809;SDS011;4944;52.514;13.192;2024-01-10T06:32:38;32.57;;;17.77;;
9809;SDS011;4944;52.514;13.192;2024-01-10T06:35:05;31.10;;;18.50;;
9809;SDS011;4944;52.514;13.192;2024-01-10T06:37:34;31.40;;;16.27;;
9809;SDS011;4944;52.514;13.192;2024-01-10T06:40:01;33.63;;;18.10;;
9809;SDS011;4944;52.514;13.192;2024-01-10T06:42:29;28.87;;;16.80;;
9809;SDS011;4944;52.514;13.192;2024-01-10T06:44:57;33.13;;;17.77;;
9809;SDS011;4944;52.514;13.192;2024-01-10T06:47:24;35.23;;;18.57;;
9809;SDS011;4944;52.514;13.192;2024-01-10T06:49:51;31.93;;;18.53;;
9809;SDS011;4944;52.514;13.192;2024-01-10T06:52:18;30.37;;;18.37;;
9809;SDS011;4944;52.514;13.192;2024-01-10T06:54:45;36.13;;;17.07;;
9809;SDS011;4944;52.514;13.192;2024-01-10T06:57:12;35.73;;;18.50;;
9809;SDS011;4944;52.514;13.192;2024-01-10T06:59:39;34.70;;;19.23;;
9809;SDS011;4944;52.514;13.192;2024-01-10T07:02:07;32.70;;;19.70;;
9809;SDS011;4944;52.514;13.192;2024-01-10T07:04:36;34.67;;;17.90;;
9809;SDS011;4944;52.514;13.192;2024-01-10T07:07:03;37.03;;;20.20;;
9809;SDS011;4944;52.514;13.192;2024-01-10T07:09:30;37.73;;;22.60;;
9809;SDS011;4944;52.514;13.192;2024-01-10T07:11:57;40.67;;;21.80;;
9809;SDS011;4944;52.514;13.192;2024-01-10T07:14:24;39.93;;;22.40;;
9809;SDS011;4944;52.514;13.192;2024-01-10T07:16:51;36.97;;;20.60;;
9809;SDS011;4944;52.514;13.192;2024-01-10T07:19:23;33.23;;;19.10;;
9809;SDS011;4944;52.514;13.192;2024-01-10T07:21:50;35.23;;;19.47;;
9809;SDS011;4944;52.514;13.192;2024-01-10T07:24:19;33.07;;;19.33;;
9809;SDS011;4944;52.514;13.192;2024-01-10T07:26:46;30.77;;;17.67;;
9809;SDS011;4944;52.514;13.192;2024-01-10T07:29:13;35.57;;;19.47;;
9809;SDS011;4944;52.514;13.192;2024-01-10T07:31:40;33.63;;;17.90;;
9809;SDS011;4944;52.514;13.192;2024-01-10T07:34:06;32.53;;;18.53;;
9809;SDS011;4944;52.514;13.192;2024-01-10T07:36:40;39.17;;;19.27;;
9809;SDS011;4944;52.514;13.192;2024-01-10T07:39:08;34.20;;;17.13;;
9809;SDS011;4944;52.514;13.192;2024-01-10T07:41:35;28.50;;;17.23;;
9809;SDS011;4944;52.514;13.192;2024-01-10T07:44:01;34.97;;;19.63;;
9809;SDS011;4944;52.514;13.192;2024-01-10T07:46:28;32.33;;;18.10;;
9809;SDS011;4944;52.514;13.192;2024-01-10T07:48:55;29.87;;;18.83;;
9809;SDS011;4944;52.514;13.192;2024-01-10T07:51:22;33.40;;;20.13;;
9809;SDS011;4944;52.514;13.192;2024-01-10T07:53:50;35.47;;;19.10;;
9809;SDS011;4944;52.514;13.192;2024-01-10T07:56:17;33.77;;;18.60;;
9809;SDS011;4944;52.514;13.192;2024-01-10T07:58:44;38.17;;;19.87;;
9809;SDS011;4944;52.514;13.192;2024-01-10T08:01:11;35.43;;;18.17;;
9809;SDS011;4944;52.514;13.192;2024-01-10T08:03:38;34.70;;;18.77;;
9809;SDS011;4944;52.514;13.192;2024-01-10T08:06:05;37.80;;;20.07;;
9809;SDS011;4944;52.514;13.192;2024-01-10T08:08:32;34.00;;;19.63;;
9809;SDS011;4944;52.514;13.192;2024-01-10T08:11:01;34.23;;;19.23;;
9809;SDS011;4944;52.514;13.192;2024-01-10T08:13:27;31.73;;;18.97;;
9809;SDS011;4944;52.514;13.192;2024-01-10T08:15:55;35.23;;;18.77;;
9809;SDS011;4944;52.514;13.192;2024-01-10T08:18:23;35.30;;;18.77;;
9809;SDS011;4944;52.514;13.192;2024-01-10T08:20:49;42.07;;;19.13;;
9809;SDS011;4944;52.514;13.192;2024-01-10T08:23:17;37.60;;;19.17;;
9809;SDS011;4944;52.514;13.192;2024-01-10T08:25:44;33.00;;;18.37;;
9809;SDS011;4944;52.514;13.192;2024-01-10T08:28:12;32.93;;;18.23;;
9809;SDS011;4944;52.514;13.192;2024-01-10T08:30:39;35.13;;;18.50;;
9809;SDS011;4944;52.514;13.192;2024-01-10T08:33:05;32.50;;;17.87;;
9809;SDS011;4944;52.514;13.192;2024-01-10T08:35:32;32.83;;;18.20;;
9809;SDS011;4944;52.514;13.192;2024-01-10T08:37:59;31.50;;;17.73;;
9809;SDS011;4944;52.514;13.192;2024-01-10T08:40:28;32.33;;;18.17;;
9809;SDS011;4944;52.514;13.192;2024-01-10T08:42:54;32.10;;;18.37;;
9809;SDS011;4944;52.514;13.192;2024-01-10T08:45:23;34.83;;;18.57;;
9809;SDS011;4944;52.514;13.192;2024-01-10T08:47:50;32.67;;;19.00;;
9809;SDS011;4944;52.514;13.192;2024-01-10T08:50:18;34.13;;;18.40;;
9809;SDS011;4944;52.514;13.192;2024-01-10T08:52:45;29.90;;;18.13;;
9809;SDS011;4944;52.514;13.192;2024-01-10T08:55:12;32.00;;;18.07;;
9809;SDS011;4944;52.514;13.192;2024-01-10T08:57:39;34.80;;;19.40;;
9809;SDS011;4944;52.514;13.192;2024-01-10T09:00:06;31.40;;;18.67;;
9809;SDS011;4944;52.514;13.192;2024-01-10T09:02:38;33.13;;;18.77;;
9809;SDS011;4944;52.514;13.192;2024-01-10T09:05:05;31.20;;;19.10;;
9809;SDS011;4944;52.514;13.192;2024-01-10T09:07:33;33.10;;;19.77;;
9809;SDS011;4944;52.514;13.192;2024-01-10T09:10:00;34.63;;;19.43;;
9809;SDS011;4944;52.514;13.192;2024-01-10T09:12:27;40.03;;;20.40;;
9809;SDS011;4944;52.514;13.192;2024-01-10T09:14:54;32.10;;;19.27;;
9809;SDS011;4944;52.514;13.192;2024-01-10T09:17:21;31.37;;;18.73;;
9809;SDS011;4944;52.514;13.192;2024-01-10T09:19:49;31.90;;;17.90;;
9809;SDS011;4944;52.514;13.192;2024-01-10T09:22:16;33.53;;;18.40;;
9809;SDS011;4944;52.514;13.192;2024-01-10T09:24:43;65.37;;;21.13;;
9809;SDS011;4944;52.514;13.192;2024-01-10T09:27:10;47.00;;;19.43;;
9809;SDS011;4944;52.514;13.192;2024-01-10T09:29:36;32.93;;;19.57;;
9809;SDS011;4944;52.514;13.192;2024-01-10T09:32:04;29.93;;;18.57;;
9809;SDS011;4944;52.514;13.192;2024-01-10T09:34:31;36.87;;;19.57;;
9809;SDS011;4944;52.514;13.192;2024-01-10T09:36:59;35.53;;;19.93;;
9809;SDS011;4944;52.514;13.192;2024-01-10T09:39:27;34.90;;;19.47;;
9809;SDS011;4944;52.514;13.192;2024-01-10T09:41:54;35.47;;;20.20;;
9809;SDS011;4944;52.514;13.192;2024-01-10T09:44:22;34.57;;;19.57;;
9809;SDS011;4944;52.514;13.192;2024-01-10T09:46:51;36.03;;;20.10;;
9809;SDS011;4944;52.514;13.192;2024-01-10T09:49:19;36.83;;;19.70;;
9809;SDS011;4944;52.514;13.192;2024-01-10T09:51:47;39.53;;;20.93;;
9809;SDS011;4944;52.514;13.192;2024-01-10T09:54:16;32.67;;;19.60;;
9809;SDS011;4944;52.514;13.192;2024-01-10T09:56:45;32.80;;;21.03;;
9809;SDS011;4944;52.514;13.192;2024-01-10T09:59:13;33.13;;;21.03;;
9809;SDS011;4944;52.514;13.192;2024-01-10T10:01:40;32.20;;;20.53;;
9809;SDS011;4944;52.514;13.192;2024-01-10T10:04:08;34.27;;;20.47;;
9809;SDS011;4944;52.514;13.192;2024-01-10T10:06:38;33.83;;;20.90;;
9809;SDS011;4944;52.514;13.192;2024-01-10T10:09:05;39.30;;;22.33;;
9809;SDS011;4944;52.514;13.192;2024-01-10T10:11:36;36.50;;;20.93;;
9809;SDS011;4944;52.514;13.192;2024-01-10T10:14:16;36.77;;;21.73;;
9809;SDS011;4944;52.514;13.192;2024-01-10T10:16:44;33.33;;;21.20;;
9809;SDS011;4944;52.514;13.192;2024-01-10T10:19:11;36.10;;;22.00;;
9809;SDS011;4944;52.514;13.192;2024-01-10T10:21:38;35.73;;;22.67;;
9809;SDS011;4944;52.514;13.192;2024-01-10T10:24:06;39.67;;;21.67;;
9809;SDS011;4944;52.514;13.192;2024-01-10T10:26:35;35.40;;;22.00;;
9809;SDS011;4944;52.514;13.192;2024-01-10T10:29:03;35.10;;;22.63;;
9809;SDS011;4944;52.514;13.192;2024-01-10T10:31:30;42.87;;;22.40;;
9809;SDS011;4944;52.514;13.192;2024-01-10T10:33:58;40.40;;;23.67;;
9809;SDS011;4944;52.514;13.192;2024-01-10T10:36:27;42.03;;;24.23;;
9809;SDS011;4944;52.514;13.192;2024-01-10T10:38:54;39.53;;;23.00;;
9809;SDS011;4944;52.514;13.192;2024-01-10T10:41:21;37.17;;;23.50;;
9809;SDS011;4944;52.514;13.192;2024-01-10T10:43:50;44.00;;;23.93;;
9809;SDS011;4944;52.514;13.192;2024-01-10T10:46:23;44.37;;;24.43;;
9809;SDS011;4944;52.514;13.192;2024-01-10T10:48:52;43.93;;;24.30;;
9809;SDS011;4944;52.514;13.192;2024-01-10T10:51:24;38.20;;;23.40;;
9809;SDS011;4944;52.514;13.192;2024-01-10T10:53:58;39.07;;;25.00;;
9809;SDS011;4944;52.514;13.192;2024-01-10T10:56:26;40.57;;;24.07;;
9809;SDS011;4944;52.514;13.192;2024-01-10T10:58:57;43.93;;;23.33;;
9809;SDS011;4944;52.514;13.192;2024-01-10T11:01:26;37.17;;;22.20;;
9809;SDS011;4944;52.514;13.192;2024-01-10T11:03:54;34.27;;;21.70;;
9809;SDS011;4944;52.514;13.192;2024-01-10T11:06:22;30.03;;;20.37;;
9809;SDS011;4944;52.514;13.192;2024-01-10T11:08:50;30.20;;;19.77;;
9809;SDS011;4944;52.514;13.192;2024-01-10T11:11:22;33.10;;;19.50;;
9809;SDS011;4944;52.514;13.192;2024-01-10T11:20:00;21.17;;;13.70;;
9809;SDS011;4944;52.514;13.192;2024-01-10T11:22:43;29.97;;;19.00;;
9809;SDS011;4944;52.514;13.192;2024-01-10T11:25:23;35.70;;;21.37;;
9809;SDS011;4944;52.514;13.192;2024-01-10T11:27:54;37.33;;;23.47;;
9809;SDS011;4944;52.514;13.192;2024-01-10T11:30:31;37.73;;;23.67;;
9809;SDS011;4944;52.514;13.192;2024-01-10T11:33:00;40.63;;;23.33;;
9809;SDS011;4944;52.514;13.192;2024-01-10T11:35:28;37.07;;;21.17;;
9809;SDS011;4944;52.514;13.192;2024-01-10T11:37:59;30.43;;;18.20;;
9809;SDS011;4944;52.514;13.192;2024-01-10T11:43:13;32.43;;;21.30;;
9809;SDS011;4944;52.514;13.192;2024-01-10T11:45:51;35.57;;;21.27;;
9809;SDS011;4944;52.514;13.192;2024-01-10T11:48:25;29.27;;;17.97;;
9809;SDS011;4944;52.514;13.192;2024-01-10T11:50:53;21.30;;;14.93;;
9809;SDS011;4944;52.514;13.192;2024-01-10T11:53:39;26.70;;;15.47;;
9809;SDS011;4944;52.514;13.192;2024-01-10T11:56:11;28.93;;;14.77;;
9809;SDS011;4944;52.514;13.192;2024-01-10T11:58:53;28.73;;;14.40;;
9809;SDS011;4944;52.514;13.192;2024-01-10T12:01:22;24.43;;;15.00;;
9809;SDS011;4944;52.514;13.192;2024-01-10T12:03:50;28.97;;;16.83;;
9809;SDS011;4944;52.514;13.192;2024-01-10T12:06:19;27.53;;;15.37;;
9809;SDS011;4944;52.514;13.192;2024-01-10T12:08:47;31.47;;;16.33;;
9809;SDS011;4944;52.514;13.192;2024-01-10T12:11:14;27.83;;;16.50;;
9809;SDS011;4944;52.514;13.192;2024-01-10T12:13:41;28.00;;;15.97;;
9809;SDS011;4944;52.514;13.192;2024-01-10T12:16:09;25.70;;;15.87;;
9809;SDS011;4944;52.514;13.192;2024-01-10T12:18:39;23.93;;;14.33;;
9809;SDS011;4944;52.514;13.192;2024-01-10T12:21:06;23.27;;;15.20;;
9809;SDS011;4944;52.514;13.192;2024-01-10T12:23:34;26.37;;;14.70;;
9809;SDS011;4944;52.514;13.192;2024-01-10T12:26:01;22.93;;;14.00;;
9809;SDS011;4944;52.514;13.192;2024-01-10T12:28:29;22.93;;;13.80;;
9809;SDS011;4944;52.514;13.192;2024-01-10T12:30:56;23.00;;;13.93;;
9809;SDS011;4944;52.514;13.192;2024-01-10T12:33:23;24.53;;;14.87;;
9809;SDS011;4944;52.514;13.192;2024-01-10T12:36:05;26.30;;;16.20;;
9809;SDS011;4944;52.514;13.192;2024-01-10T12:38:33;27.33;;;15.70;;
9809;SDS011;4944;52.514;13.192;2024-01-10T12:41:00;27.03;;;16.37;;
9809;SDS011;4944;52.514;13.192;2024-01-10T12:43:27;27.10;;;16.37;;
9809;SDS011;4944;52.514;13.192;2024-01-10T12:46:04;22.93;;;16.07;;
9809;SDS011;4944;52.514;13.192;2024-01-10T12:48:32;25.50;;;16.97;;
9809;SDS011;4944;52.514;13.192;2024-01-10T12:51:01;30.43;;;17.03;;
9809;SDS011;4944;52.514;13.192;2024-01-10T12:53:32;25.90;;;15.20;;
9809;SDS011;4944;52.514;13.192;2024-01-10T12:56:00;26.23;;;14.67;;
9809;SDS011;4944;52.514;13.192;2024-01-10T12:58:27;24.87;;;14.30;;
9809;SDS011;4944;52.514;13.192;2024-01-10T13:00:54;28.17;;;14.03;;
9809;SDS011;4944;52.514;13.192;2024-01-10T13:03:21;19.27;;;13.73;;
9809;SDS011;4944;52.514;13.192;2024-01-10T13:05:49;22.70;;;14.50;;
9809;SDS011;4944;52.514;13.192;2024-01-10T13:08:16;30.93;;;16.93;;
9809;SDS011;4944;52.514;13.192;2024-01-10T13:10:45;29.10;;;16.83;;
9809;SDS011;4944;52.514;13.192;2024-01-10T13:13:13;27.07;;;16.90;;
9809;SDS011;4944;52.514;13.192;2024-01-10T13:15:40;29.77;;;18.23;;
9809;SDS011;4944;52.514;13.192;2024-01-10T13:18:07;28.00;;;17.03;;
9809;SDS011;4944;52.514;13.192;2024-01-10T13:20:35;27.67;;;16.17;;
9809;SDS011;4944;52.514;13.192;2024-01-10T13:23:03;25.20;;;16.57;;
9809;SDS011;4944;52.514;13.192;2024-01-10T13:25:30;33.90;;;17.33;;
9809;SDS011;4944;52.514;13.192;2024-01-10T13:27:58;27.90;;;16.60;;
9809;SDS011;4944;52.514;13.192;2024-01-10T13:30:26;28.70;;;16.10;;
9809;SDS011;4944;52.514;13.192;2024-01-10T13:32:53;26.13;;;16.07;;
9809;SDS011;4944;52.514;13.192;2024-01-10T13:35:20;24.67;;;16.57;;
9809;SDS011;4944;52.514;13.192;2024-01-10T13:37:47;26.13;;;15.43;;
9809;SDS011;4944;52.514;13.192;2024-01-10T13:40:14;23.43;;;16.20;;
9809;SDS011;4944;52.514;13.192;2024-01-10T13:42:41;28.13;;;15.90;;
9809;SDS011;4944;52.514;13.192;2024-01-10T13:45:10;26.03;;;16.40;;
9809;SDS011;4944;52.514;13.192;2024-01-10T13:47:37;22.13;;;15.10;;
9809;SDS011;4944;52.514;13.192;2024-01-10T13:50:05;27.50;;;15.50;;
9809;SDS011;4944;52.514;13.192;2024-01-10T13:52:33;37.87;;;15.90;;
9809;SDS011;4944;52.514;13.192;2024-01-10T13:55:00;25.60;;;14.17;;
9809;SDS011;4944;52.514;13.192;2024-01-10T13:57:29;24.57;;;13.83;;
9809;SDS011;4944;52.514;13.192;2024-01-10T13:59:57;26.40;;;13.47;;
9809;SDS011;4944;52.514;13.192;2024-01-10T14:02:26;24.07;;;14.03;;
9809;SDS011;4944;52.514;13.192;2024-01-10T14:04:53;20.50;;;13.10;;
9809;SDS011;4944;52.514;13.192;2024-01-10T14:07:22;27.50;;;14.73;;
9809;SDS011;4944;52.514;13.192;2024-01-10T14:09:49;22.87;;;13.37;;
9809;SDS011;4944;52.514;13.192;2024-01-10T14:12:17;29.17;;;12.97;;
9809;SDS011;4944;52.514;13.192;2024-01-10T14:14:43;20.73;;;12.30;;
9809;SDS011;4944;52.514;13.192;2024-01-10T14:17:10;20.37;;;12.80;;
9809;SDS011;4944;52.514;13.192;2024-01-10T14:19:39;25.97;;;12.27;;
9809;SDS011;4944;52.514;13.192;2024-01-10T14:22:06;19.30;;;11.97;;
9809;SDS011;4944;52.514;13.192;2024-01-10T14:24:33;24.77;;;13.20;;
9809;SDS011;4944;52.514;13.192;2024-01-10T14:27:00;22.07;;;12.83;;
9809;SDS011;4944;52.514;13.192;2024-01-10T14:29:27;21.87;;;12.87;;
9809;SDS011;4944;52.514;13.192;2024-01-10T14:31:54;22.40;;;12.63;;
9809;SDS011;4944;52.514;13.192;2024-01-10T14:34:21;24.17;;;13.00;;
9809;SDS011;4944;52.514;13.192;2024-01-10T14:36:49;48.97;;;14.53;;
9809;SDS011;4944;52.514;13.192;2024-01-10T14:39:16;26.07;;;12.73;;
9809;SDS011;4944;52.514;13.192;2024-01-10T14:41:43;24.97;;;12.00;;
9809;SDS011;4944;52.514;13.192;2024-01-10T14:44:10;23.40;;;12.13;;
9809;SDS011;4944;52.514;13.192;2024-01-10T14:46:37;28.40;;;12.07;;